Time;durP1;ratioP1;P1;durP2;ratioP2;P2;SDS_P1;SDS_P2;PMS_P1;PMS_P2;Temp;Humidity;BMP_temperature;BMP_pressure;BME280_temperature;BME280_humidity;BME280_pressure;Samples;Min_cycle;Max_cycle;Signal;HPM_P1;HPM_P2
2023/08/21 00:00:08;;;;;;;10.82;5.43;;;;;;;;;;6156074;23;20017;-89
2023/08/21 00:02:34;;;;;;;11.20;6.00;;;;;;;;;;6156001;23;20341;-89
2023/08/21 00:05:00;;;;;;;8.82;5.30;;;;;;;;;;6154070;23;20021;-89
2023/08/21 00:07:26;;;;;;;11.02;5.07;;;;;;;;;;6155670;23;20017;-89
2023/08/21 00:09:52;;;;;;;14.40;6.20;;;;;;;;;;6155373;23;20013;-89
2023/08/21 00:12:18;;;;;;;8.93;5.88;;;;;;;;;;6182379;23;20100;-90
2023/08/21 00:14:44;;;;;;;12.07;5.90;;;;;;;;;;6156068;23;20013;-89
2023/08/21 00:17:10;;;;;;;14.43;5.95;;;;;;;;;;6156978;23;20052;-88
2023/08/21 00:19:37;;;;;;;8.35;4.90;;;;;;;;;;6181986;23;20009;-89
2023/08/21 00:22:03;;;;;;;11.93;5.53;;;;;;;;;;6184058;23;20013;-89
2023/08/21 00:24:29;;;;;;;12.73;5.85;;;;;;;;;;6129772;23;20084;-90
2023/08/21 00:26:55;;;;;;;11.02;5.43;;;;;;;;;;6157380;23;20016;-89
2023/08/21 00:29:21;;;;;;;11.80;5.53;;;;;;;;;;6158781;23;20151;-89
2023/08/21 00:31:47;;;;;;;8.70;5.18;;;;;;;;;;6156850;23;20024;-89
2023/08/21 00:34:13;;;;;;;7.38;4.55;;;;;;;;;;6182478;23;20017;-89
2023/08/21 00:36:39;;;;;;;9.13;4.82;;;;;;;;;;6156689;23;20382;-89
2023/08/21 00:39:06;;;;;;;8.45;4.50;;;;;;;;;;6130338;23;20382;-89
2023/08/21 00:41:34;;;;;;;8.32;4.43;;;;;;;;;;6156592;23;20020;-89
2023/08/21 00:44:00;;;;;;;12.63;4.60;;;;;;;;;;6181572;23;20450;-90
2023/08/21 00:46:26;;;;;;;8.70;4.28;;;;;;;;;;6182307;23;20334;-90
2023/08/21 00:48:52;;;;;;;7.22;4.00;;;;;;;;;;6181649;23;20017;-89
2023/08/21 00:51:18;;;;;;;6.68;3.92;;;;;;;;;;6181455;23;20017;-89
2023/08/21 00:53:45;;;;;;;7.65;4.60;;;;;;;;;;6154787;23;20013;-89
2023/08/21 00:56:11;;;;;;;12.65;5.47;;;;;;;;;;6155478;23;20021;-89
2023/08/21 00:58:37;;;;;;;11.55;5.45;;;;;;;;;;6155800;23;20013;-89
2023/08/21 01:01:04;;;;;;;16.48;5.90;;;;;;;;;;6182314;23;20009;-89
2023/08/21 01:03:31;;;;;;;11.10;5.53;;;;;;;;;;6181637;23;20064;-90
2023/08/21 01:05:57;;;;;;;13.45;5.05;;;;;;;;;;6180750;23;20013;-89
2023/08/21 01:08:26;;;;;;;9.38;4.90;;;;;;;;;;6181828;23;20005;-90
2023/08/21 01:11:01;;;;;;;8.30;4.97;;;;;;;;;;6182240;23;20013;-89
2023/08/21 01:13:33;;;;;;;12.55;5.53;;;;;;;;;;6181513;23;20021;-89
2023/08/21 01:15:59;;;;;;;10.30;5.47;;;;;;;;;;6182118;23;20021;-89
2023/08/21 01:18:26;;;;;;;9.82;5.78;;;;;;;;;;6182013;23;20017;-89
2023/08/21 01:20:53;;;;;;;14.70;5.20;;;;;;;;;;6179959;23;20292;-89
2023/08/21 01:23:32;;;;;;;9.10;5.10;;;;;;;;;;6180611;23;20017;-89
2023/08/21 01:25:58;;;;;;;10.68;5.63;;;;;;;;;;6155437;23;20014;-89
2023/08/21 01:28:24;;;;;;;11.82;4.90;;;;;;;;;;6155291;23;20336;-89
2023/08/21 01:30:52;;;;;;;11.07;5.22;;;;;;;;;;6182020;23;20013;-89
2023/08/21 01:33:18;;;;;;;11.90;6.30;;;;;;;;;;6154334;23;20013;-90
2023/08/21 01:35:45;;;;;;;13.10;6.30;;;;;;;;;;6154867;23;20021;-89
2023/08/21 01:38:11;;;;;;;13.10;6.15;;;;;;;;;;6180967;23;20014;-89
2023/08/21 01:40:37;;;;;;;11.38;6.30;;;;;;;;;;6155266;23;20017;-89
2023/08/21 01:43:03;;;;;;;11.00;6.45;;;;;;;;;;6180203;23;20443;-90
2023/08/21 01:45:29;;;;;;;15.23;6.40;;;;;;;;;;6155183;23;20032;-89
2023/08/21 01:47:55;;;;;;;11.00;6.70;;;;;;;;;;6181650;23;20424;-89
2023/08/21 01:50:21;;;;;;;12.10;6.90;;;;;;;;;;6155715;23;20096;-89
2023/08/21 01:52:47;;;;;;;13.38;6.68;;;;;;;;;;6157480;23;20024;-89
2023/08/21 01:55:13;;;;;;;12.35;6.78;;;;;;;;;;6157132;23;20071;-89
2023/08/21 01:57:39;;;;;;;11.77;7.00;;;;;;;;;;6183344;23;20013;-89
2023/08/21 02:00:06;;;;;;;16.08;7.57;;;;;;;;;;6157151;23;20067;-88
2023/08/21 02:02:32;;;;;;;10.23;6.18;;;;;;;;;;6182809;23;20016;-90
2023/08/21 02:04:58;;;;;;;9.68;5.95;;;;;;;;;;6182135;23;20096;-90
2023/08/21 02:07:24;;;;;;;12.23;5.90;;;;;;;;;;6157141;23;20013;-89
2023/08/21 02:09:50;;;;;;;9.77;5.60;;;;;;;;;;6156533;23;20443;-89
2023/08/21 02:12:16;;;;;;;10.13;5.13;;;;;;;;;;6156310;23;20084;-89
2023/08/21 02:14:43;;;;;;;8.00;5.20;;;;;;;;;;6157159;23;20076;-89
2023/08/21 02:17:09;;;;;;;6.65;4.32;;;;;;;;;;6156792;23;20021;-89
2023/08/21 02:19:35;;;;;;;5.60;4.32;;;;;;;;;;6182257;23;20024;-89
2023/08/21 02:22:01;;;;;;;6.13;4.13;;;;;;;;;;6183627;23;20076;-90
2023/08/21 02:24:27;;;;;;;5.25;4.00;;;;;;;;;;6157951;23;20036;-90
2023/08/21 02:26:53;;;;;;;5.18;3.85;;;;;;;;;;6157724;23;20092;-90
2023/08/21 02:29:19;;;;;;;7.80;4.40;;;;;;;;;;6183584;23;20009;-89
2023/08/21 02:31:45;;;;;;;6.40;4.30;;;;;;;;;;6183203;23;20020;-89
2023/08/21 02:34:11;;;;;;;7.30;4.20;;;;;;;;;;6183603;23;20032;-89
2023/08/21 02:36:37;;;;;;;4.80;3.85;;;;;;;;;;6185549;23;20093;-87
2023/08/21 02:39:03;;;;;;;6.38;3.78;;;;;;;;;;6183802;23;20019;-90
2023/08/21 02:41:29;;;;;;;6.38;3.47;;;;;;;;;;6156152;23;20435;-90
2023/08/21 02:43:55;;;;;;;5.55;3.60;;;;;;;;;;6156421;23;20403;-89
2023/08/21 02:46:22;;;;;;;6.30;3.75;;;;;;;;;;6155879;23;20072;-89
2023/08/21 02:48:48;;;;;;;6.28;4.45;;;;;;;;;;6182215;23;20009;-89
2023/08/21 02:51:14;;;;;;;8.93;4.50;;;;;;;;;;6183576;23;20061;-89
2023/08/21 02:53:40;;;;;;;7.80;4.75;;;;;;;;;;6156617;23;20021;-89
2023/08/21 02:56:06;;;;;;;7.28;4.75;;;;;;;;;;6156683;23;20016;-89
2023/08/21 02:58:32;;;;;;;7.88;4.93;;;;;;;;;;6156239;23;20021;-89
2023/08/21 03:00:58;;;;;;;10.75;5.25;;;;;;;;;;6182077;23;20013;-89
2023/08/21 03:03:24;;;;;;;8.43;4.93;;;;;;;;;;6182252;23;20061;-89
2023/08/21 03:05:50;;;;;;;7.00;4.40;;;;;;;;;;6183284;23;20168;-89
2023/08/21 03:08:16;;;;;;;8.63;4.47;;;;;;;;;;6156652;23;20132;-89
2023/08/21 03:10:42;;;;;;;4.53;3.58;;;;;;;;;;6155682;23;20021;-89
2023/08/21 03:13:08;;;;;;;6.57;3.47;;;;;;;;;;6182313;23;20094;-89
2023/08/21 03:15:35;;;;;;;6.47;3.20;;;;;;;;;;6182226;23;20331;-89
2023/08/21 03:18:01;;;;;;;4.55;3.10;;;;;;;;;;6154587;23;20021;-89
2023/08/21 03:20:27;;;;;;;5.43;3.60;;;;;;;;;;6182834;23;20017;-89
2023/08/21 03:22:53;;;;;;;4.72;3.90;;;;;;;;;;6156293;23;20084;-89
2023/08/21 03:25:19;;;;;;;5.78;4.25;;;;;;;;;;6156502;23;20024;-89
2023/08/21 03:27:49;;;;;;;7.38;4.20;;;;;;;;;;6155660;23;20021;-89
2023/08/21 03:30:15;;;;;;;5.47;3.85;;;;;;;;;;6155567;23;20052;-89
2023/08/21 03:32:41;;;;;;;6.95;3.97;;;;;;;;;;6180407;23;20024;-89
2023/08/21 03:35:07;;;;;;;7.47;4.13;;;;;;;;;;6156474;23;20021;-89
2023/08/21 03:37:33;;;;;;;9.50;4.93;;;;;;;;;;6182677;23;20013;-89
2023/08/21 03:39:59;;;;;;;6.72;4.70;;;;;;;;;;6155968;23;20021;-88
2023/08/21 03:42:25;;;;;;;8.02;4.70;;;;;;;;;;6182822;23;20131;-90
2023/08/21 03:44:51;;;;;;;7.18;4.80;;;;;;;;;;6182600;23;20024;-89
2023/08/21 03:47:18;;;;;;;6.32;5.07;;;;;;;;;;6182220;23;20048;-89
2023/08/21 03:49:44;;;;;;;6.38;4.55;;;;;;;;;;6155118;23;20040;-89
2023/08/21 03:52:10;;;;;;;6.55;5.03;;;;;;;;;;6182757;23;20008;-89
2023/08/21 03:54:36;;;;;;;9.65;5.03;;;;;;;;;;6155169;23;20020;-89
2023/08/21 03:57:02;;;;;;;6.80;4.65;;;;;;;;;;6131395;23;20025;-89
2023/08/21 03:59:29;;;;;;;5.88;4.18;;;;;;;;;;6182666;23;20017;-89
2023/08/21 04:01:55;;;;;;;5.28;4.03;;;;;;;;;;6180807;23;20099;-89
2023/08/21 04:04:21;;;;;;;8.00;4.35;;;;;;;;;;6181820;23;20339;-89
2023/08/21 04:06:47;;;;;;;7.18;5.03;;;;;;;;;;6155585;23;20465;-89
2023/08/21 04:09:13;;;;;;;6.30;4.43;;;;;;;;;;6184072;23;20075;-89
2023/08/21 04:11:39;;;;;;;6.40;4.63;;;;;;;;;;6183634;23;20079;-89
2023/08/21 04:14:05;;;;;;;7.57;4.90;;;;;;;;;;6157033;23;20021;-89
2023/08/21 04:16:31;;;;;;;6.38;4.53;;;;;;;;;;6155590;23;20163;-90
2023/08/21 04:18:57;;;;;;;6.20;4.80;;;;;;;;;;6155025;23;20288;-89
2023/08/21 04:21:23;;;;;;;6.10;4.60;;;;;;;;;;6181189;23;20013;-89
2023/08/21 04:23:49;;;;;;;7.63;4.93;;;;;;;;;;6155598;23;20052;-89
2023/08/21 04:26:15;;;;;;;8.02;4.75;;;;;;;;;;6183309;23;20020;-89
2023/08/21 04:28:42;;;;;;;7.40;4.75;;;;;;;;;;6183916;23;20477;-89
2023/08/21 04:31:08;;;;;;;8.65;4.80;;;;;;;;;;6155801;23;20009;-90
2023/08/21 04:33:35;;;;;;;7.10;4.82;;;;;;;;;;6182127;23;20013;-89
2023/08/21 04:36:01;;;;;;;6.97;4.55;;;;;;;;;;6153996;23;20028;-89
2023/08/21 04:38:27;;;;;;;7.10;5.07;;;;;;;;;;6182374;23;20102;-89
2023/08/21 04:40:53;;;;;;;8.88;4.85;;;;;;;;;;6156965;23;20017;-89
2023/08/21 04:43:19;;;;;;;8.85;5.35;;;;;;;;;;6157985;23;20024;-90
2023/08/21 04:45:55;;;;;;;6.82;4.28;;;;;;;;;;6156274;23;20091;-90
2023/08/21 04:48:21;;;;;;;;;;;;;;;;;;6183006;23;20454;-90
2023/08/21 04:50:47;;;;;;;5.60;4.47;;;;;;;;;;6182485;23;19912;-89
2023/08/21 04:53:13;;;;;;;5.70;4.80;;;;;;;;;;6155581;23;20347;-89
2023/08/21 04:55:40;;;;;;;7.10;5.07;;;;;;;;;;6182261;23;20035;-90
2023/08/21 04:58:07;;;;;;;6.55;4.78;;;;;;;;;;6181988;23;20025;-90
2023/08/21 05:00:33;;;;;;;6.75;5.10;;;;;;;;;;6129021;23;20013;-89
2023/08/21 05:02:59;;;;;;;8.63;5.38;;;;;;;;;;6130120;23;20648;-89
2023/08/21 05:05:25;;;;;;;5.95;4.85;;;;;;;;;;6131028;23;20043;-90
2023/08/21 05:07:52;;;;;;;6.88;4.82;;;;;;;;;;6181917;23;20016;-89
2023/08/21 05:10:18;;;;;;;6.93;4.70;;;;;;;;;;6155438;23;20027;-90
2023/08/21 05:12:45;;;;;;;8.10;5.00;;;;;;;;;;6181410;23;20439;-90
2023/08/21 05:15:11;;;;;;;7.97;5.00;;;;;;;;;;6152875;23;20057;-89
2023/08/21 05:17:37;;;;;;;6.80;4.88;;;;;;;;;;6129302;23;20381;-89
2023/08/21 05:20:04;;;;;;;8.15;4.78;;;;;;;;;;6155612;23;20023;-89
2023/08/21 05:22:30;;;;;;;5.75;4.70;;;;;;;;;;6181433;23;20049;-89
2023/08/21 05:24:56;;;;;;;7.28;5.20;;;;;;;;;;6156490;23;20075;-89
2023/08/21 05:27:22;;;;;;;8.43;4.88;;;;;;;;;;6184951;23;20032;-90
2023/08/21 05:29:50;;;;;;;6.95;5.10;;;;;;;;;;6156639;23;20339;-90
2023/08/21 05:32:16;;;;;;;9.38;5.10;;;;;;;;;;6157625;23;20048;-90
2023/08/21 05:34:43;;;;;;;8.43;5.90;;;;;;;;;;6157197;23;20047;-89
2023/08/21 05:37:09;;;;;;;7.65;5.85;;;;;;;;;;6183145;23;20016;-90
2023/08/21 05:39:35;;;;;;;7.70;5.57;;;;;;;;;;6132628;23;20088;-90
2023/08/21 05:42:01;;;;;;;8.82;5.45;;;;;;;;;;6184475;23;20020;-89
2023/08/21 05:44:27;;;;;;;9.30;5.57;;;;;;;;;;6155964;23;20117;-90
2023/08/21 05:46:54;;;;;;;10.25;6.22;;;;;;;;;;6156868;23;20021;-91
2023/08/21 05:49:20;;;;;;;7.63;6.13;;;;;;;;;;6185391;23;20020;-88
2023/08/21 05:51:46;;;;;;;9.05;5.88;;;;;;;;;;6184233;23;20455;-89
2023/08/21 05:54:12;;;;;;;10.32;5.75;;;;;;;;;;6157997;23;20336;-95
2023/08/21 05:56:38;;;;;;;9.82;5.90;;;;;;;;;;6156238;23;20017;-88
2023/08/21 05:59:04;;;;;;;9.15;5.55;;;;;;;;;;6157129;23;20021;-88
2023/08/21 06:01:30;;;;;;;7.93;5.07;;;;;;;;;;6182681;23;20013;-88
2023/08/21 06:03:58;;;;;;;9.35;5.47;;;;;;;;;;6181989;23;20017;-88
2023/08/21 06:06:24;;;;;;;8.77;4.97;;;;;;;;;;6183827;23;20097;-87
2023/08/21 06:08:50;;;;;;;11.98;5.90;;;;;;;;;;6156133;23;20013;-88
2023/08/21 06:11:16;;;;;;;7.70;5.25;;;;;;;;;;6182777;23;20458;-88
2023/08/21 06:13:42;;;;;;;7.07;5.07;;;;;;;;;;6182971;23;20031;-88
2023/08/21 06:16:08;;;;;;;11.52;5.32;;;;;;;;;;6182488;23;20021;-88
2023/08/21 06:18:34;;;;;;;8.45;5.50;;;;;;;;;;6156115;23;20021;-89
2023/08/21 06:21:00;;;;;;;10.25;5.50;;;;;;;;;;6156712;23;20079;-88
2023/08/21 06:23:26;;;;;;;10.25;4.95;;;;;;;;;;6156845;23;20151;-88
2023/08/21 06:25:52;;;;;;;10.43;5.18;;;;;;;;;;6155863;23;20068;-89
2023/08/21 06:28:18;;;;;;;10.13;4.80;;;;;;;;;;6183606;23;20013;-90
2023/08/21 06:30:44;;;;;;;9.63;5.03;;;;;;;;;;6183079;23;20013;-87
2023/08/21 06:33:10;;;;;;;8.35;4.72;;;;;;;;;;6182304;23;20009;-88
2023/08/21 06:35:37;;;;;;;9.63;4.88;;;;;;;;;;6183898;23;20032;-86
2023/08/21 06:38:04;;;;;;;9.25;4.40;;;;;;;;;;6158157;23;20021;-87
2023/08/21 06:40:30;;;;;;;8.73;4.60;;;;;;;;;;6183114;23;20013;-87
2023/08/21 06:42:56;;;;;;;8.05;4.20;;;;;;;;;;6182403;23;20106;-87
2023/08/21 06:45:22;;;;;;;7.10;4.00;;;;;;;;;;6182664;23;20017;-86
2023/08/21 06:47:50;;;;;;;8.48;4.95;;;;;;;;;;6156099;23;20017;-87
2023/08/21 06:50:16;;;;;;;8.80;4.55;;;;;;;;;;6157107;23;20017;-87
2023/08/21 06:52:43;;;;;;;9.50;5.18;;;;;;;;;;6156654;23;20025;-87
2023/08/21 06:55:09;;;;;;;9.00;4.47;;;;;;;;;;6155207;23;20013;-87
2023/08/21 06:57:37;;;;;;;8.80;4.60;;;;;;;;;;6181838;23;20442;-87
2023/08/21 07:00:04;;;;;;;8.90;4.25;;;;;;;;;;6155749;23;20426;-88
2023/08/21 07:02:30;;;;;;;7.22;4.20;;;;;;;;;;6155293;23;20469;-87
2023/08/21 07:04:56;;;;;;;6.60;4.03;;;;;;;;;;6181681;23;20176;-88
2023/08/21 07:07:22;;;;;;;7.30;3.97;;;;;;;;;;6156351;23;20071;-87
2023/08/21 07:09:51;;;;;;;6.28;3.38;;;;;;;;;;6156222;23;20024;-88
2023/08/21 07:12:17;;;;;;;7.70;4.25;;;;;;;;;;6151814;23;20384;-89
2023/08/21 07:14:43;;;;;;;8.88;4.63;;;;;;;;;;6154958;23;20299;-89
2023/08/21 07:17:09;;;;;;;10.75;4.05;;;;;;;;;;6182518;23;20566;-90
2023/08/21 07:19:35;;;;;;;7.13;4.03;;;;;;;;;;6155410;23;20016;-88
2023/08/21 07:22:01;;;;;;;7.35;3.60;;;;;;;;;;6154762;23;20446;-88
2023/08/21 07:24:27;;;;;;;6.28;3.55;;;;;;;;;;6152657;23;20024;-88
2023/08/21 07:26:53;;;;;;;9.82;3.90;;;;;;;;;;6182126;23;20017;-88
2023/08/21 07:29:19;;;;;;;6.97;3.55;;;;;;;;;;6130593;23;20021;-88
2023/08/21 07:31:45;;;;;;;8.43;3.80;;;;;;;;;;6180740;23;20013;-89
2023/08/21 07:34:11;;;;;;;7.82;3.78;;;;;;;;;;6154958;23;20023;-88
2023/08/21 07:36:37;;;;;;;10.50;4.10;;;;;;;;;;6155348;23;20352;-87
2023/08/21 07:39:03;;;;;;;6.88;3.30;;;;;;;;;;6155390;23;20021;-90
2023/08/21 07:41:29;;;;;;;7.20;3.30;;;;;;;;;;6183893;23;20017;-88
2023/08/21 07:43:55;;;;;;;8.00;3.90;;;;;;;;;;6156079;23;20021;-89
2023/08/21 07:46:21;;;;;;;5.75;3.30;;;;;;;;;;6153341;23;20021;-86
2023/08/21 07:48:48;;;;;;;7.15;3.30;;;;;;;;;;6154490;23;20013;-89
2023/08/21 07:51:14;;;;;;;7.90;3.20;;;;;;;;;;6155797;23;20013;-88
2023/08/21 07:53:40;;;;;;;9.65;3.72;;;;;;;;;;6181060;23;20009;-89
2023/08/21 07:56:06;;;;;;;6.00;3.50;;;;;;;;;;6157196;23;20477;-88
2023/08/21 07:58:32;;;;;;;8.95;3.22;;;;;;;;;;6156749;23;20017;-87
2023/08/21 08:00:58;;;;;;;9.73;3.58;;;;;;;;;;6183689;23;20020;-87
2023/08/21 08:03:25;;;;;;;8.38;3.97;;;;;;;;;;6155284;23;20013;-88
2023/08/21 08:05:51;;;;;;;6.97;3.33;;;;;;;;;;6182300;23;20140;-88
2023/08/21 08:08:17;;;;;;;8.27;3.53;;;;;;;;;;6151950;23;20312;-90
2023/08/21 08:10:44;;;;;;;7.78;3.40;;;;;;;;;;6153203;23;20017;-89
2023/08/21 08:13:10;;;;;;;7.63;3.78;;;;;;;;;;6154720;23;20203;-89
2023/08/21 08:15:36;;;;;;;5.75;3.25;;;;;;;;;;6183214;23;20080;-88
2023/08/21 08:18:03;;;;;;;7.50;3.20;;;;;;;;;;6182739;23;20013;-88
2023/08/21 08:20:29;;;;;;;7.90;3.30;;;;;;;;;;6182374;23;20315;-88
2023/08/21 08:22:56;;;;;;;11.55;3.70;;;;;;;;;;6180612;23;20017;-89
2023/08/21 08:25:22;;;;;;;7.82;3.60;;;;;;;;;;6155458;23;20017;-88
2023/08/21 08:27:48;;;;;;;9.38;3.42;;;;;;;;;;6154779;23;20153;-88
2023/08/21 08:30:15;;;;;;;8.10;3.47;;;;;;;;;;6182368;23;20017;-92
2023/08/21 08:32:44;;;;;;;7.53;4.07;;;;;;;;;;6181839;23;20009;-92
2023/08/21 08:35:11;;;;;;;6.88;3.70;;;;;;;;;;6183487;23;20095;-95
2023/08/21 08:37:37;;;;;;;8.90;3.25;;;;;;;;;;6156222;23;20021;-92
2023/08/21 08:40:04;;;;;;;7.03;3.58;;;;;;;;;;6155688;23;20032;-88
2023/08/21 08:42:32;;;;;;;9.82;3.40;;;;;;;;;;6157702;23;20116;-92
2023/08/21 08:45:02;;;;;;;14.93;4.40;;;;;;;;;;6183968;23;20028;-93
2023/08/21 08:47:29;;;;;;;6.22;3.10;;;;;;;;;;6157508;23;20025;-90
2023/08/21 08:49:56;;;;;;;8.05;3.15;;;;;;;;;;6181496;23;20055;-95
2023/08/21 08:52:23;;;;;;;6.97;3.15;;;;;;;;;;6156460;23;20021;-86
2023/08/21 08:54:49;;;;;;;6.32;3.17;;;;;;;;;;6181670;23;20020;-92
2023/08/21 08:57:15;;;;;;;8.23;3.13;;;;;;;;;;6181932;23;20095;-89
2023/08/21 08:59:42;;;;;;;7.18;3.60;;;;;;;;;;6154363;23;20055;-87
2023/08/21 09:02:08;;;;;;;7.50;3.38;;;;;;;;;;6154733;23;20075;-88
2023/08/21 09:04:34;;;;;;;8.93;3.38;;;;;;;;;;6181326;23;20009;-87
2023/08/21 09:07:07;;;;;;;7.90;3.30;;;;;;;;;;6181291;23;20013;-87
2023/08/21 09:09:38;;;;;;;8.73;3.88;;;;;;;;;;6180266;23;20435;-87
2023/08/21 09:12:10;;;;;;;6.97;3.88;;;;;;;;;;6154903;23;20095;-87
2023/08/21 09:14:36;;;;;;;14.45;3.63;;;;;;;;;;6181470;23;20017;-86
2023/08/21 09:17:03;;;;;;;9.00;3.50;;;;;;;;;;6181722;23;20047;-87
2023/08/21 09:19:29;;;;;;;8.15;3.90;;;;;;;;;;6154880;23;20386;-87
2023/08/21 09:21:55;;;;;;;8.13;4.00;;;;;;;;;;6181290;23;20096;-87
2023/08/21 09:24:22;;;;;;;7.70;3.83;;;;;;;;;;6180849;23;20024;-87
2023/08/21 09:26:48;;;;;;;8.18;3.25;;;;;;;;;;6155035;23;20024;-87
2023/08/21 09:29:15;;;;;;;7.07;3.50;;;;;;;;;;6154459;23;20092;-87
2023/08/21 09:31:43;;;;;;;8.23;3.42;;;;;;;;;;6154990;23;20039;-87
2023/08/21 09:34:09;;;;;;;12.35;3.55;;;;;;;;;;6154116;23;20017;-86
2023/08/21 09:36:35;;;;;;;5.70;2.80;;;;;;;;;;6181640;23;20017;-87
2023/08/21 09:39:03;;;;;;;6.25;3.08;;;;;;;;;;6154672;23;20100;-88
2023/08/21 09:41:29;;;;;;;5.78;3.00;;;;;;;;;;6155219;23;20040;-89
2023/08/21 09:43:59;;;;;;;6.93;2.90;;;;;;;;;;6154432;23;20025;-86
2023/08/21 09:46:26;;;;;;;7.13;3.30;;;;;;;;;;6180979;23;20024;-87
2023/08/21 09:48:53;;;;;;;7.80;3.58;;;;;;;;;;6154007;23;20013;-86
2023/08/21 09:51:20;;;;;;;6.78;3.25;;;;;;;;;;6181541;23;20084;-87
2023/08/21 09:53:47;;;;;;;5.43;2.88;;;;;;;;;;6154058;23;20013;-86
2023/08/21 09:56:13;;;;;;;6.57;3.05;;;;;;;;;;6154440;23;20052;-87
2023/08/21 09:58:39;;;;;;;3.67;2.45;;;;;;;;;;6181459;23;20286;-87
2023/08/21 10:01:11;;;;;;;5.57;2.45;;;;;;;;;;6181422;23;20069;-86
2023/08/21 10:03:39;;;;;;;5.97;2.63;;;;;;;;;;6180516;23;20009;-86
2023/08/21 10:06:06;;;;;;;7.40;2.90;;;;;;;;;;6154493;23;20136;-87
2023/08/21 10:08:34;;;;;;;8.55;2.92;;;;;;;;;;6181545;23;20076;-86
2023/08/21 10:11:00;;;;;;;7.85;3.42;;;;;;;;;;6153661;23;20017;-86
2023/08/21 10:13:27;;;;;;;6.63;3.35;;;;;;;;;;6156235;23;20025;-87
2023/08/21 10:15:53;;;;;;;6.93;2.92;;;;;;;;;;6155252;23;20452;-86
2023/08/21 10:18:19;;;;;;;9.05;3.50;;;;;;;;;;6155652;23;20048;-86
2023/08/21 10:20:45;;;;;;;7.75;3.50;;;;;;;;;;6182993;23;20032;-87
2023/08/21 10:23:23;;;;;;;9.48;3.13;;;;;;;;;;6155075;23;20439;-87
2023/08/21 10:25:54;;;;;;;7.15;3.15;;;;;;;;;;6156421;23;20088;-86
2023/08/21 10:28:20;;;;;;;8.63;3.40;;;;;;;;;;6183197;23;20080;-86
2023/08/21 10:30:46;;;;;;;8.32;3.50;;;;;;;;;;6156156;23;20017;-87
2023/08/21 10:33:12;;;;;;;6.47;3.47;;;;;;;;;;6155415;23;20092;-87
2023/08/21 10:35:38;;;;;;;4.20;3.28;;;;;;;;;;6156284;23;20055;-87
2023/08/21 10:38:11;;;;;;;11.73;4.03;;;;;;;;;;6155909;23;20021;-88
2023/08/21 10:40:38;;;;;;;5.07;2.97;;;;;;;;;;6183413;23;20028;-88
2023/08/21 10:43:05;;;;;;;14.20;4.80;;;;;;;;;;6182818;23;20036;-88
2023/08/21 10:45:31;;;;;;;8.95;4.15;;;;;;;;;;6155374;23;20092;-88
2023/08/21 10:47:58;;;;;;;21.45;6.82;;;;;;;;;;6182137;23;20043;-88
2023/08/21 10:50:24;;;;;;;14.82;4.75;;;;;;;;;;6184684;23;20331;-88
2023/08/21 10:52:52;;;;;;;5.35;2.47;;;;;;;;;;6156103;23;20024;-88
2023/08/21 10:55:18;;;;;;;6.68;2.42;;;;;;;;;;6156237;23;20024;-89
2023/08/21 10:57:46;;;;;;;5.90;2.10;;;;;;;;;;6183850;23;20080;-88
2023/08/21 11:00:13;;;;;;;9.50;2.90;;;;;;;;;;6158109;23;20017;-89
2023/08/21 11:02:43;;;;;;;27.05;9.25;;;;;;;;;;6156604;23;20020;-88
2023/08/21 11:05:10;;;;;;;5.15;2.20;;;;;;;;;;6183002;23;20092;-88
2023/08/21 11:07:40;;;;;;;9.18;3.17;;;;;;;;;;6155033;23;20451;-89
2023/08/21 11:10:11;;;;;;;5.25;2.47;;;;;;;;;;6156308;23;20395;-88
2023/08/21 11:12:37;;;;;;;6.32;2.80;;;;;;;;;;6155688;23;20015;-89
2023/08/21 11:15:06;;;;;;;23.25;8.05;;;;;;;;;;6155793;23;20089;-88
2023/08/21 11:17:32;;;;;;;11.50;4.20;;;;;;;;;;6182232;23;20017;-88
2023/08/21 11:20:04;;;;;;;10.60;2.60;;;;;;;;;;6155600;23;20013;-88
2023/08/21 11:22:32;;;;;;;11.45;3.47;;;;;;;;;;6155249;23;20021;-89
2023/08/21 11:24:58;;;;;;;8.73;2.85;;;;;;;;;;6131451;23;20009;-88
2023/08/21 11:27:24;;;;;;;5.35;2.75;;;;;;;;;;6182563;23;20017;-88
2023/08/21 11:29:51;;;;;;;7.72;2.47;;;;;;;;;;6154430;23;20335;-88
2023/08/21 11:32:24;;;;;;;6.28;2.83;;;;;;;;;;6181927;23;20013;-88
2023/08/21 11:34:54;;;;;;;6.50;2.40;;;;;;;;;;6181710;23;20017;-89
2023/08/21 11:37:27;;;;;;;5.38;2.13;;;;;;;;;;6155614;23;20017;-88
2023/08/21 11:39:54;;;;;;;3.17;1.92;;;;;;;;;;6155818;23;20021;-89
2023/08/21 11:42:29;;;;;;;3.70;1.85;;;;;;;;;;6182071;23;20013;-89
2023/08/21 11:44:55;;;;;;;5.80;2.00;;;;;;;;;;6179888;23;20518;-88
2023/08/21 11:47:23;;;;;;;5.50;2.30;;;;;;;;;;6156822;23;20044;-88
2023/08/21 11:49:50;;;;;;;4.40;2.13;;;;;;;;;;6156165;23;20274;-88
2023/08/21 11:52:24;;;;;;;5.93;2.22;;;;;;;;;;6156753;23;20013;-89
2023/08/21 11:54:51;;;;;;;4.57;2.20;;;;;;;;;;6131635;23;20013;-89
2023/08/21 11:57:17;;;;;;;7.50;2.63;;;;;;;;;;6182954;23;20036;-88
2023/08/21 11:59:43;;;;;;;6.13;2.63;;;;;;;;;;6180247;23;20039;-88
2023/08/21 12:02:17;;;;;;;6.45;2.70;;;;;;;;;;6182531;23;20017;-89
2023/08/21 12:04:44;;;;;;;5.05;2.20;;;;;;;;;;6182173;23;20023;-88
2023/08/21 12:07:10;;;;;;;5.53;2.20;;;;;;;;;;6156386;23;20020;-88
2023/08/21 12:09:36;;;;;;;3.50;1.70;;;;;;;;;;6156630;23;20040;-87
2023/08/21 12:12:02;;;;;;;3.90;1.80;;;;;;;;;;6182707;23;20025;-88
2023/08/21 12:14:29;;;;;;;5.40;2.15;;;;;;;;;;6180802;23;20013;-88
2023/08/21 12:16:55;;;;;;;7.45;2.88;;;;;;;;;;6155451;23;20024;-88
2023/08/21 12:19:24;;;;;;;7.93;3.13;;;;;;;;;;6181469;23;20068;-88
2023/08/21 12:21:51;;;;;;;6.30;3.22;;;;;;;;;;6131127;23;20017;-88
2023/08/21 12:24:17;;;;;;;6.03;2.65;;;;;;;;;;6153825;23;20027;-87
2023/08/21 12:26:43;;;;;;;12.38;5.45;;;;;;;;;;6155142;23;20056;-88
2023/08/21 12:29:09;;;;;;;4.72;3.00;;;;;;;;;;6130033;23;20016;-88
2023/08/21 12:31:36;;;;;;;7.57;3.08;;;;;;;;;;6154768;23;20017;-88
2023/08/21 12:34:03;;;;;;;5.75;2.90;;;;;;;;;;6182503;23;20069;-88
2023/08/21 12:36:29;;;;;;;5.78;3.25;;;;;;;;;;6182405;23;20017;-88
2023/08/21 12:38:55;;;;;;;7.45;3.95;;;;;;;;;;6155392;23;20052;-88
2023/08/21 12:41:21;;;;;;;9.60;4.22;;;;;;;;;;6155510;23;20017;-88
2023/08/21 12:43:47;;;;;;;9.90;4.50;;;;;;;;;;6154820;23;20013;-89
2023/08/21 12:46:13;;;;;;;6.47;3.50;;;;;;;;;;6154044;23;20347;-88
2023/08/21 12:48:40;;;;;;;8.27;4.38;;;;;;;;;;6181315;23;20031;-88
2023/08/21 12:51:06;;;;;;;8.80;5.45;;;;;;;;;;6181982;23;20013;-89
2023/08/21 12:53:32;;;;;;;7.50;5.47;;;;;;;;;;6182812;23;20294;-88
2023/08/21 12:55:58;;;;;;;12.35;5.43;;;;;;;;;;6185183;23;20039;-89
2023/08/21 12:58:24;;;;;;;9.75;5.63;;;;;;;;;;6185391;23;20020;-89
2023/08/21 13:00:50;;;;;;;10.40;6.28;;;;;;;;;;6155656;23;20044;-89
2023/08/21 13:03:16;;;;;;;11.88;5.68;;;;;;;;;;6182562;23;20017;-89
2023/08/21 13:05:42;;;;;;;8.70;5.13;;;;;;;;;;6160247;23;20177;-93
2023/08/21 13:08:34;;;;;;;8.38;4.50;;;;;;;;;;6156127;23;20013;-89
2023/08/21 13:11:00;;;;;;;7.38;4.60;;;;;;;;;;6182015;23;20021;-82
2023/08/21 13:13:26;;;;;;;7.47;4.53;;;;;;;;;;6147950;23;20060;-84
2023/08/21 13:15:54;;;;;;;6.53;3.22;;;;;;;;;;6179993;23;20088;-84
2023/08/21 13:18:20;;;;;;;7.18;2.92;;;;;;;;;;6180034;23;20084;-84
2023/08/21 13:20:46;;;;;;;6.30;2.80;;;;;;;;;;6153762;23;20028;-84
2023/08/21 13:23:12;;;;;;;5.93;3.25;;;;;;;;;;6130531;23;20024;-87
2023/08/21 13:25:38;;;;;;;4.53;2.65;;;;;;;;;;6154583;23;20071;-82
2023/08/21 13:31:11;;;;;;;;;;;;;;;;;;6182090;23;20021;-85
2023/08/21 13:33:47;;;;;;;6.25;2.80;;;;;;;;;;6179980;23;19983;-84
2023/08/21 13:36:13;;;;;;;;;;;;;;;;;;6154199;23;20020;-88
2023/08/21 13:38:39;;;;;;;;;;;;;;;;;;6182410;23;19983;-83
2023/08/21 13:41:05;;;;;;;8.68;3.03;;;;;;;;;;6181179;23;20281;-84
2023/08/21 13:43:31;;;;;;;7.03;3.25;;;;;;;;;;6180846;23;20498;-83
2023/08/21 13:45:57;;;;;;;6.28;3.40;;;;;;;;;;6181054;23;20017;-84
2023/08/21 13:48:23;;;;;;;6.80;2.80;;;;;;;;;;6156274;23;20020;-84
2023/08/21 13:50:50;;;;;;;4.50;2.50;;;;;;;;;;6156659;23;20108;-84
2023/08/21 13:53:16;;;;;;;6.57;3.13;;;;;;;;;;6182861;23;20009;-84
2023/08/21 13:55:42;;;;;;;7.50;3.35;;;;;;;;;;6182153;23;20016;-84
2023/08/21 13:58:08;;;;;;;5.63;2.30;;;;;;;;;;6183362;23;20021;-84
2023/08/21 14:00:34;;;;;;;8.10;2.60;;;;;;;;;;6132360;23;20020;-84
2023/08/21 14:03:00;;;;;;;7.47;2.38;;;;;;;;;;6155456;23;20017;-83
2023/08/21 14:05:27;;;;;;;6.13;2.40;;;;;;;;;;6181069;23;20413;-84
2023/08/21 14:07:53;;;;;;;4.95;2.00;;;;;;;;;;6156580;23;20442;-84
2023/08/21 14:10:19;;;;;;;4.88;2.20;;;;;;;;;;6183437;23;20084;-84
2023/08/21 14:12:45;;;;;;;5.28;2.40;;;;;;;;;;6182420;23;20020;-85
2023/08/21 14:15:11;;;;;;;4.75;2.08;;;;;;;;;;6156142;23;20021;-86
2023/08/21 14:17:38;;;;;;;5.22;1.90;;;;;;;;;;6130706;23;20020;-86
2023/08/21 14:20:04;;;;;;;3.72;2.20;;;;;;;;;;6183170;23;20028;-85
2023/08/21 14:22:31;;;;;;;3.50;1.90;;;;;;;;;;6156048;23;20060;-83
2023/08/21 14:24:57;;;;;;;4.10;2.10;;;;;;;;;;6155926;23;20129;-83
2023/08/21 14:27:23;;;;;;;3.42;1.85;;;;;;;;;;6182160;23;20108;-81
2023/08/21 14:29:49;;;;;;;4.20;1.90;;;;;;;;;;6156482;23;20024;-83
2023/08/21 14:32:15;;;;;;;5.15;2.10;;;;;;;;;;6182905;23;20013;-83
2023/08/21 14:34:41;;;;;;;5.80;2.10;;;;;;;;;;6155932;23;20017;-83
2023/08/21 14:37:08;;;;;;;3.58;1.70;;;;;;;;;;6156056;23;20130;-83
2023/08/21 14:39:34;;;;;;;3.22;1.88;;;;;;;;;;6182837;23;20329;-82